sensor_id;sensor_type;location;lat;lon;timestamp;pressure;altitude;pressure_sealevel;temperature;humidity
7832;BME280;3961;42.058;25.586;2022-08-02T00:01:50;64872.31;;;23.31;65.11
7832;BME280;3961;42.058;25.586;2022-08-02T00:04:15;64879.13;;;23.34;64.91
7832;BME280;3961;42.058;25.586;2022-08-02T00:06:41;64864.69;;;23.24;65.65
7832;BME280;3961;42.058;25.586;2022-08-02T00:09:07;64867.41;;;23.24;66.49
7832;BME280;3961;42.058;25.586;2022-08-02T00:11:33;64852.75;;;23.11;66.85
7832;BME280;3961;42.058;25.586;2022-08-02T00:13:58;64852.41;;;23.13;67.78
7832;BME280;3961;42.058;25.586;2022-08-02T00:16:24;64791.72;;;22.63;71.21
7832;BME280;3961;42.058;25.586;2022-08-02T00:18:49;64794.44;;;22.63;71.41
7832;BME280;3961;42.058;25.586;2022-08-02T00:21:15;64783.69;;;22.52;70.90
7832;BME280;3961;42.058;25.586;2022-08-02T00:23:41;64834.47;;;23.00;70.49
7832;BME280;3961;42.058;25.586;2022-08-02T00:26:06;64836.25;;;23.02;70.33
7832;BME280;3961;42.058;25.586;2022-08-02T00:28:32;64826.28;;;22.93;70.36
7832;BME280;3961;42.058;25.586;2022-08-02T00:30:58;64797.94;;;22.66;72.52
7832;BME280;3961;42.058;25.586;2022-08-02T00:33:25;64805.19;;;22.75;71.50
7832;BME280;3961;42.058;25.586;2022-08-02T00:35:50;64797.81;;;22.71;71.48
7832;BME280;3961;42.058;25.586;2022-08-02T00:38:16;64835.06;;;23.01;71.46
7832;BME280;3961;42.058;25.586;2022-08-02T00:40:49;64829.22;;;22.96;69.86
7832;BME280;3961;42.058;25.586;2022-08-02T00:43:15;64843.63;;;23.06;69.79
7832;BME280;3961;42.058;25.586;2022-08-02T00:45:42;64835.66;;;23.01;70.00
7832;BME280;3961;42.058;25.586;2022-08-02T00:48:10;64860.38;;;23.18;68.89
7832;BME280;3961;42.058;25.586;2022-08-02T00:50:36;64830.75;;;22.95;69.01
7832;BME280;3961;42.058;25.586;2022-08-02T00:53:03;64825.84;;;22.88;70.46
7832;BME280;3961;42.058;25.586;2022-08-02T00:55:29;64827.81;;;22.92;69.99
7832;BME280;3961;42.058;25.586;2022-08-02T00:57:56;64820.06;;;22.90;70.50
7832;BME280;3961;42.058;25.586;2022-08-02T01:00:21;64818.81;;;22.82;70.25
7832;BME280;3961;42.058;25.586;2022-08-02T01:02:47;64779.44;;;22.53;73.32
7832;BME280;3961;42.058;25.586;2022-08-02T01:05:14;64778.63;;;22.50;74.36
7832;BME280;3961;42.058;25.586;2022-08-02T01:07:40;64773.16;;;22.42;74.39
7832;BME280;3961;42.058;25.586;2022-08-02T01:10:06;64738.50;;;22.17;75.94
7832;BME280;3961;42.058;25.586;2022-08-02T01:12:32;64754.88;;;22.31;75.34
7832;BME280;3961;42.058;25.586;2022-08-02T01:15:01;64739.44;;;22.16;77.17
7832;BME280;3961;42.058;25.586;2022-08-02T01:17:48;64745.28;;;22.21;76.39
7832;BME280;3961;42.058;25.586;2022-08-02T01:26:41;64758.97;;;22.35;74.67
7832;BME280;3961;42.058;25.586;2022-08-02T01:29:12;64761.09;;;22.34;74.73
7832;BME280;3961;42.058;25.586;2022-08-02T01:31:58;64779.81;;;22.51;73.55
7832;BME280;3961;42.058;25.586;2022-08-02T01:34:42;64767.72;;;22.42;73.79
7832;BME280;3961;42.058;25.586;2022-08-02T01:39:38;64762.84;;;22.36;74.65
7832;BME280;3961;42.058;25.586;2022-08-02T01:42:05;64757.81;;;22.34;75.01
7832;BME280;3961;42.058;25.586;2022-08-02T01:44:35;64755.47;;;22.32;74.98
7832;BME280;3961;42.058;25.586;2022-08-02T01:47:08;64743.31;;;22.17;75.48
7832;BME280;3961;42.058;25.586;2022-08-02T01:49:36;64722.50;;;22.01;75.27
7832;BME280;3961;42.058;25.586;2022-08-02T01:52:03;64707.25;;;21.88;76.09
7832;BME280;3961;42.058;25.586;2022-08-02T01:57:20;64712.88;;;21.90;75.18
7832;BME280;3961;42.058;25.586;2022-08-02T01:59:48;64718.75;;;21.95;74.58
7832;BME280;3961;42.058;25.586;2022-08-02T02:02:15;64728.34;;;22.06;75.06
7832;BME280;3961;42.058;25.586;2022-08-02T02:04:43;64720.13;;;21.99;76.19
7832;BME280;3961;42.058;25.586;2022-08-02T02:07:11;64722.50;;;22.01;77.95
7832;BME280;3961;42.058;25.586;2022-08-02T02:09:38;64715.09;;;21.97;76.65
7832;BME280;3961;42.058;25.586;2022-08-02T02:12:05;64688.22;;;21.73;77.85
7832;BME280;3961;42.058;25.586;2022-08-02T02:14:34;64693.09;;;21.80;77.35
7832;BME280;3961;42.058;25.586;2022-08-02T02:17:01;64665.41;;;21.54;78.36
7832;BME280;3961;42.058;25.586;2022-08-02T02:19:28;64691.13;;;21.76;78.52
7832;BME280;3961;42.058;25.586;2022-08-02T02:21:54;64694.41;;;21.76;80.04
7832;BME280;3961;42.058;25.586;2022-08-02T02:24:20;64699.28;;;21.83;80.06
7832;BME280;3961;42.058;25.586;2022-08-02T02:26:46;64674.75;;;21.62;81.92
7832;BME280;3961;42.058;25.586;2022-08-02T02:29:13;64678.63;;;21.63;81.20
7832;BME280;3961;42.058;25.586;2022-08-02T02:31:43;64681.31;;;21.63;83.02
7832;BME280;3961;42.058;25.586;2022-08-02T02:34:14;64669.28;;;21.55;85.50
7832;BME280;3961;42.058;25.586;2022-08-02T02:36:45;64649.03;;;21.39;86.38
7832;BME280;3961;42.058;25.586;2022-08-02T02:39:13;64659.91;;;21.46;84.96
7832;BME280;3961;42.058;25.586;2022-08-02T02:41:41;64642.41;;;21.31;84.81
7832;BME280;3961;42.058;25.586;2022-08-02T02:44:10;64629.50;;;21.20;84.22
7832;BME280;3961;42.058;25.586;2022-08-02T02:46:38;64630.34;;;21.23;84.20
7832;BME280;3961;42.058;25.586;2022-08-02T02:49:05;64607.53;;;21.03;85.50
7832;BME280;3961;42.058;25.586;2022-08-02T02:51:31;64562.13;;;20.59;87.56
7832;BME280;3961;42.058;25.586;2022-08-02T02:53:58;64563.75;;;20.65;88.71
7832;BME280;3961;42.058;25.586;2022-08-02T02:56:24;64568.19;;;20.67;89.73
7832;BME280;3961;42.058;25.586;2022-08-02T02:58:50;64517.16;;;20.20;91.21
7832;BME280;3961;42.058;25.586;2022-08-02T03:01:20;64548.19;;;20.54;94.02
7832;BME280;3961;42.058;25.586;2022-08-02T03:03:53;64563.50;;;20.63;92.92
7832;BME280;3961;42.058;25.586;2022-08-02T03:06:19;64567.25;;;20.68;91.60
7832;BME280;3961;42.058;25.586;2022-08-02T03:08:45;64554.03;;;20.59;91.68
7832;BME280;3961;42.058;25.586;2022-08-02T03:11:13;64559.06;;;20.61;91.53
7832;BME280;3961;42.058;25.586;2022-08-02T03:13:39;64556.50;;;20.57;90.42
7832;BME280;3961;42.058;25.586;2022-08-02T03:16:05;64563.16;;;20.65;90.09
7832;BME280;3961;42.058;25.586;2022-08-02T03:18:36;64561.19;;;20.61;91.03
7832;BME280;3961;42.058;25.586;2022-08-02T03:23:29;64584.75;;;20.84;88.97
7832;BME280;3961;42.058;25.586;2022-08-02T03:25:55;64589.44;;;20.88;88.39
7832;BME280;3961;42.058;25.586;2022-08-02T03:28:21;64584.31;;;20.78;88.30
7832;BME280;3961;42.058;25.586;2022-08-02T03:30:47;64571.09;;;20.69;89.39
7832;BME280;3961;42.058;25.586;2022-08-02T03:33:12;64577.19;;;20.77;88.95
7832;BME280;3961;42.058;25.586;2022-08-02T03:35:40;64584.38;;;20.86;87.84
7832;BME280;3961;42.058;25.586;2022-08-02T03:38:06;64568.41;;;20.69;88.53
7832;BME280;3961;42.058;25.586;2022-08-02T03:40:34;64553.00;;;20.54;89.87
7832;BME280;3961;42.058;25.586;2022-08-02T03:43:01;64585.69;;;20.82;88.23
7832;BME280;3961;42.058;25.586;2022-08-02T03:45:27;64599.13;;;20.94;87.24
7832;BME280;3961;42.058;25.586;2022-08-02T03:47:54;64592.94;;;20.91;86.92
7832;BME280;3961;42.058;25.586;2022-08-02T03:50:20;64617.47;;;21.12;85.71
7832;BME280;3961;42.058;25.586;2022-08-02T03:52:47;64700.47;;;21.84;80.57
7832;BME280;3961;42.058;25.586;2022-08-02T03:55:13;64889.28;;;23.45;72.17
7832;BME280;3961;42.058;25.586;2022-08-02T03:57:40;65109.75;;;25.36;65.10
7832;BME280;3961;42.058;25.586;2022-08-02T04:00:08;65190.97;;;26.09;60.69
7832;BME280;3961;42.058;25.586;2022-08-02T04:02:34;65384.16;;;27.73;54.05
7832;BME280;3961;42.058;25.586;2022-08-02T04:05:00;65514.03;;;28.83;49.55
7832;BME280;3961;42.058;25.586;2022-08-02T04:07:26;65690.59;;;30.33;46.78
7832;BME280;3961;42.058;25.586;2022-08-02T04:09:52;65801.97;;;31.33;42.85
7832;BME280;3961;42.058;25.586;2022-08-02T04:12:17;65896.44;;;32.15;38.97
7832;BME280;3961;42.058;25.586;2022-08-02T04:14:43;65996.72;;;32.98;36.85
7832;BME280;3961;42.058;25.586;2022-08-02T04:17:11;66174.03;;;34.55;34.18
7832;BME280;3961;42.058;25.586;2022-08-02T04:19:50;65860.59;;;31.79;38.54
7832;BME280;3961;42.058;25.586;2022-08-02T04:22:28;65944.88;;;32.56;37.05
7832;BME280;3961;42.058;25.586;2022-08-02T04:24:57;65920.09;;;32.35;37.54
7832;BME280;3961;42.058;25.586;2022-08-02T04:27:24;65965.59;;;32.74;37.24
7832;BME280;3961;42.058;25.586;2022-08-02T04:29:51;66282.41;;;35.48;33.26
7832;BME280;3961;42.058;25.586;2022-08-02T04:32:17;66523.63;;;37.45;30.01
7832;BME280;3961;42.058;25.586;2022-08-02T04:34:44;66513.13;;;37.46;29.80
7832;BME280;3961;42.058;25.586;2022-08-02T04:37:12;66463.50;;;36.98;30.61
7832;BME280;3961;42.058;25.586;2022-08-02T04:39:39;66431.84;;;36.69;30.63
7832;BME280;3961;42.058;25.586;2022-08-02T04:42:05;66282.59;;;35.44;31.61
7832;BME280;3961;42.058;25.586;2022-08-02T04:44:31;66236.03;;;35.06;32.51
7832;BME280;3961;42.058;25.586;2022-08-02T04:46:58;66208.56;;;34.80;33.14
7832;BME280;3961;42.058;25.586;2022-08-02T04:49:24;66562.03;;;37.83;29.03
7832;BME280;3961;42.058;25.586;2022-08-02T04:51:49;66327.66;;;35.82;31.78
7832;BME280;3961;42.058;25.586;2022-08-02T04:54:15;66372.91;;;36.23;31.11
7832;BME280;3961;42.058;25.586;2022-08-02T04:56:40;66410.09;;;36.53;30.34
7832;BME280;3961;42.058;25.586;2022-08-02T04:59:06;66572.72;;;37.92;28.72
7832;BME280;3961;42.058;25.586;2022-08-02T05:01:32;66667.97;;;38.69;27.62
7832;BME280;3961;42.058;25.586;2022-08-02T05:03:59;66719.91;;;39.15;27.11
7832;BME280;3961;42.058;25.586;2022-08-02T05:06:25;66229.91;;;34.98;32.36
7832;BME280;3961;42.058;25.586;2022-08-02T05:08:51;66428.09;;;36.71;31.21
7832;BME280;3961;42.058;25.586;2022-08-02T05:11:17;66435.97;;;36.73;30.78
7832;BME280;3961;42.058;25.586;2022-08-02T05:13:42;66305.72;;;35.63;32.91
7832;BME280;3961;42.058;25.586;2022-08-02T05:16:08;66373.31;;;36.21;31.86
7832;BME280;3961;42.058;25.586;2022-08-02T05:18:34;66534.72;;;37.59;29.10
7832;BME280;3961;42.058;25.586;2022-08-02T05:21:00;66320.75;;;35.79;31.79
7832;BME280;3961;42.058;25.586;2022-08-02T05:23:26;66318.16;;;35.74;32.51
7832;BME280;3961;42.058;25.586;2022-08-02T05:25:52;66204.81;;;34.75;33.83
7832;BME280;3961;42.058;25.586;2022-08-02T05:28:17;66225.34;;;34.97;33.41
7832;BME280;3961;42.058;25.586;2022-08-02T05:30:43;66225.94;;;34.97;33.77
7832;BME280;3961;42.058;25.586;2022-08-02T05:33:08;66412.66;;;36.50;31.58
7832;BME280;3961;42.058;25.586;2022-08-02T05:35:34;66301.56;;;35.60;32.20
7832;BME280;3961;42.058;25.586;2022-08-02T05:38:00;66282.59;;;35.44;32.49
7832;BME280;3961;42.058;25.586;2022-08-02T05:40:25;66252.78;;;35.16;33.80
7832;BME280;3961;42.058;25.586;2022-08-02T05:42:51;66202.44;;;34.80;33.34
7832;BME280;3961;42.058;25.586;2022-08-02T05:45:17;66059.41;;;33.52;35.92
7832;BME280;3961;42.058;25.586;2022-08-02T05:47:42;65943.72;;;32.55;37.83
7832;BME280;3961;42.058;25.586;2022-08-02T05:50:08;65756.50;;;30.94;40.56
7832;BME280;3961;42.058;25.586;2022-08-02T05:55:47;65653.09;;;30.03;43.14
7832;BME280;3961;42.058;25.586;2022-08-02T05:58:39;65553.47;;;29.17;44.99
7832;BME280;3961;42.058;25.586;2022-08-02T06:01:08;65533.88;;;29.05;45.96
7832;BME280;3961;42.058;25.586;2022-08-02T06:03:41;65546.03;;;29.13;44.64
7832;BME280;3961;42.058;25.586;2022-08-02T06:06:15;65516.22;;;28.90;46.22
7832;BME280;3961;42.058;25.586;2022-08-02T06:08:49;65533.44;;;29.00;46.66
7832;BME280;3961;42.058;25.586;2022-08-02T06:11:17;65518.16;;;28.87;46.40
7832;BME280;3961;42.058;25.586;2022-08-02T06:13:45;65509.16;;;28.84;45.74
7832;BME280;3961;42.058;25.586;2022-08-02T06:16:11;65525.41;;;28.95;46.10
7832;BME280;3961;42.058;25.586;2022-08-02T06:18:40;65541.91;;;29.09;45.28
7832;BME280;3961;42.058;25.586;2022-08-02T06:21:06;65529.75;;;29.01;45.35
7832;BME280;3961;42.058;25.586;2022-08-02T06:23:33;65548.56;;;29.11;46.04
7832;BME280;3961;42.058;25.586;2022-08-02T06:26:00;65554.66;;;29.18;46.27
7832;BME280;3961;42.058;25.586;2022-08-02T06:28:28;65531.31;;;29.00;45.68
7832;BME280;3961;42.058;25.586;2022-08-02T06:30:55;65525.63;;;28.98;45.36
7832;BME280;3961;42.058;25.586;2022-08-02T06:33:20;65537.41;;;29.08;45.30
7832;BME280;3961;42.058;25.586;2022-08-02T06:38:42;65523.66;;;28.94;45.43
7832;BME280;3961;42.058;25.586;2022-08-02T06:41:11;65523.84;;;28.96;46.18
7832;BME280;3961;42.058;25.586;2022-08-02T06:46:12;65590.41;;;29.47;44.92
7832;BME280;3961;42.058;25.586;2022-08-02T06:48:38;65613.00;;;29.68;44.14
7832;BME280;3961;42.058;25.586;2022-08-02T06:51:04;65619.09;;;29.76;43.83
7832;BME280;3961;42.058;25.586;2022-08-02T06:53:30;65637.94;;;29.92;43.78
7832;BME280;3961;42.058;25.586;2022-08-02T06:55:56;65625.78;;;29.84;43.71
7832;BME280;3961;42.058;25.586;2022-08-02T06:58:22;65611.66;;;29.72;44.59
7832;BME280;3961;42.058;25.586;2022-08-02T07:00:47;65680.03;;;30.31;43.89
7832;BME280;3961;42.058;25.586;2022-08-02T07:03:13;65690.22;;;30.35;41.99
7832;BME280;3961;42.058;25.586;2022-08-02T07:05:40;65719.34;;;30.62;42.43
7832;BME280;3961;42.058;25.586;2022-08-02T07:08:06;65737.63;;;30.78;41.43
7832;BME280;3961;42.058;25.586;2022-08-02T07:10:32;65763.78;;;31.03;41.49
7832;BME280;3961;42.058;25.586;2022-08-02T07:12:57;65777.78;;;31.13;41.25
7832;BME280;3961;42.058;25.586;2022-08-02T07:15:23;65779.31;;;31.12;40.79
7832;BME280;3961;42.058;25.586;2022-08-02T07:17:48;65794.66;;;31.25;40.46
7832;BME280;3961;42.058;25.586;2022-08-02T07:20:14;65787.19;;;31.21;40.16
7832;BME280;3961;42.058;25.586;2022-08-02T07:22:40;65823.59;;;31.50;39.63
7832;BME280;3961;42.058;25.586;2022-08-02T07:25:07;65868.09;;;31.90;38.68
7832;BME280;3961;42.058;25.586;2022-08-02T07:27:32;65877.34;;;31.96;39.14
7832;BME280;3961;42.058;25.586;2022-08-02T07:29:59;65814.75;;;31.42;38.73
7832;BME280;3961;42.058;25.586;2022-08-02T07:32:28;65794.47;;;31.22;38.66
7832;BME280;3961;42.058;25.586;2022-08-02T07:34:54;65776.22;;;31.14;39.81
7832;BME280;3961;42.058;25.586;2022-08-02T07:37:22;65838.94;;;31.63;38.71
7832;BME280;3961;42.058;25.586;2022-08-02T07:39:47;65815.34;;;31.43;39.80
7832;BME280;3961;42.058;25.586;2022-08-02T07:42:13;65829.91;;;31.60;39.26
7832;BME280;3961;42.058;25.586;2022-08-02T07:44:38;65807.66;;;31.36;38.50
7832;BME280;3961;42.058;25.586;2022-08-02T07:47:04;65807.88;;;31.38;38.79
7832;BME280;3961;42.058;25.586;2022-08-02T07:49:30;65752.19;;;30.95;39.88
7832;BME280;3961;42.058;25.586;2022-08-02T07:51:56;65782.88;;;31.15;39.27
7832;BME280;3961;42.058;25.586;2022-08-02T07:54:21;65779.31;;;31.12;39.27
7832;BME280;3961;42.058;25.586;2022-08-02T07:56:47;65795.47;;;31.28;39.55
7832;BME280;3961;42.058;25.586;2022-08-02T07:59:12;65799.78;;;31.27;38.35
7832;BME280;3961;42.058;25.586;2022-08-02T08:01:39;65718.53;;;30.59;39.54
7832;BME280;3961;42.058;25.586;2022-08-02T08:04:05;65688.66;;;30.36;40.73
7832;BME280;3961;42.058;25.586;2022-08-02T08:06:31;65704.19;;;30.45;40.78
7832;BME280;3961;42.058;25.586;2022-08-02T08:08:57;65792.31;;;31.23;39.35
7832;BME280;3961;42.058;25.586;2022-08-02T08:11:23;65775.97;;;31.11;39.20
7832;BME280;3961;42.058;25.586;2022-08-02T08:13:49;65783.47;;;31.15;39.05
7832;BME280;3961;42.058;25.586;2022-08-02T08:16:15;65743.16;;;30.85;38.93
7832;BME280;3961;42.058;25.586;2022-08-02T08:18:41;65748.84;;;30.88;40.06
7832;BME280;3961;42.058;25.586;2022-08-02T08:21:06;65845.81;;;31.66;39.56
7832;BME280;3961;42.058;25.586;2022-08-02T08:23:32;65877.72;;;31.94;37.56
7832;BME280;3961;42.058;25.586;2022-08-02T08:25:58;65889.94;;;32.09;36.74
7832;BME280;3961;42.058;25.586;2022-08-02T08:28:23;65940.38;;;32.48;36.36
7832;BME280;3961;42.058;25.586;2022-08-02T08:30:49;65965.00;;;32.73;35.79
7832;BME280;3961;42.058;25.586;2022-08-02T08:33:15;65915.75;;;32.29;36.44
7832;BME280;3961;42.058;25.586;2022-08-02T08:35:41;65946.66;;;32.58;36.82
7832;BME280;3961;42.058;25.586;2022-08-02T08:38:06;65889.94;;;32.09;36.72
7832;BME280;3961;42.058;25.586;2022-08-02T08:40:32;65845.47;;;31.68;37.30
7832;BME280;3961;42.058;25.586;2022-08-02T08:42:58;65812.81;;;31.45;38.09
7832;BME280;3961;42.058;25.586;2022-08-02T08:45:24;65879.69;;;31.98;37.25
7832;BME280;3961;42.058;25.586;2022-08-02T08:47:52;65842.47;;;31.66;37.38
7832;BME280;3961;42.058;25.586;2022-08-02T08:50:23;65854.53;;;31.79;36.79
7832;BME280;3961;42.058;25.586;2022-08-02T08:52:56;65900.38;;;32.16;36.54
7832;BME280;3961;42.058;25.586;2022-08-02T08:55:26;65851.56;;;31.76;37.36
7832;BME280;3961;42.058;25.586;2022-08-02T08:57:53;65825.38;;;31.51;37.52
7832;BME280;3961;42.058;25.586;2022-08-02T09:00:19;65764.19;;;31.01;38.72
7832;BME280;3961;42.058;25.586;2022-08-02T09:02:44;65783.47;;;31.15;38.22
7832;BME280;3961;42.058;25.586;2022-08-02T09:05:12;65789.16;;;31.18;37.87
7832;BME280;3961;42.058;25.586;2022-08-02T09:07:38;65841.69;;;31.63;37.31
7832;BME280;3961;42.058;25.586;2022-08-02T09:15:32;65903.31;;;32.18;36.48
7832;BME280;3961;42.058;25.586;2022-08-02T09:17:57;65957.47;;;32.62;35.91
7832;BME280;3961;42.058;25.586;2022-08-02T09:20:23;66024.28;;;33.20;35.22
7832;BME280;3961;42.058;25.586;2022-08-02T09:23:09;66042.84;;;33.38;34.22
7832;BME280;3961;42.058;25.586;2022-08-02T09:25:36;66042.47;;;33.40;34.52
7832;BME280;3961;42.058;25.586;2022-08-02T09:28:04;66025.69;;;33.23;34.80
7832;BME280;3961;42.058;25.586;2022-08-02T09:30:31;66007.94;;;33.08;35.05
7832;BME280;3961;42.058;25.586;2022-08-02T09:32:57;65951.78;;;32.60;35.28
7832;BME280;3961;42.058;25.586;2022-08-02T09:35:39;65862.19;;;31.85;36.52
7832;BME280;3961;42.058;25.586;2022-08-02T09:38:12;65879.91;;;32.00;36.35
7832;BME280;3961;42.058;25.586;2022-08-02T09:40:40;65897.81;;;32.18;35.77
7832;BME280;3961;42.058;25.586;2022-08-02T09:43:07;65892.91;;;32.12;35.62
7832;BME280;3961;42.058;25.586;2022-08-02T09:45:34;65913.75;;;32.25;35.95
7832;BME280;3961;42.058;25.586;2022-08-02T09:48:10;66007.94;;;33.08;35.60
7832;BME280;3961;42.058;25.586;2022-08-02T09:50:36;66066.50;;;33.58;34.35
7832;BME280;3961;42.058;25.586;2022-08-02T09:53:03;66072.63;;;33.66;33.23
7832;BME280;3961;42.058;25.586;2022-08-02T09:55:29;66133.34;;;34.16;33.43
7832;BME280;3961;42.058;25.586;2022-08-02T09:57:55;66145.59;;;34.24;32.07
7832;BME280;3961;42.058;25.586;2022-08-02T10:00:21;66063.16;;;33.58;33.54
7832;BME280;3961;42.058;25.586;2022-08-02T10:03:06;66054.06;;;33.48;34.40
7832;BME280;3961;42.058;25.586;2022-08-02T10:05:50;66039.50;;;33.37;34.06
7832;BME280;3961;42.058;25.586;2022-08-02T10:08:15;66026.84;;;33.24;34.52
7832;BME280;3961;42.058;25.586;2022-08-02T10:10:42;65905.91;;;32.23;36.18
7832;BME280;3961;42.058;25.586;2022-08-02T10:13:09;65882.66;;;32.00;36.70
7832;BME280;3961;42.058;25.586;2022-08-02T10:15:38;65804.50;;;31.31;37.60
7832;BME280;3961;42.058;25.586;2022-08-02T10:18:07;65750.78;;;30.85;38.39
7832;BME280;3961;42.058;25.586;2022-08-02T10:20:44;65778.72;;;31.11;38.47
7832;BME280;3961;42.058;25.586;2022-08-02T10:23:12;65774.00;;;31.07;38.33
7832;BME280;3961;42.058;25.586;2022-08-02T10:25:39;65792.91;;;31.23;37.90
7832;BME280;3961;42.058;25.586;2022-08-02T10:28:05;65875.56;;;31.94;37.84
7832;BME280;3961;42.058;25.586;2022-08-02T10:30:34;65968.34;;;32.74;37.26
7832;BME280;3961;42.058;25.586;2022-08-02T10:33:01;66031.38;;;33.26;35.96
7832;BME280;3961;42.058;25.586;2022-08-02T10:35:31;65978.38;;;32.83;34.54
7832;BME280;3961;42.058;25.586;2022-08-02T10:38:00;65999.09;;;33.00;34.32
7832;BME280;3961;42.058;25.586;2022-08-02T10:40:48;65915.34;;;32.31;35.91
7832;BME280;3961;42.058;25.586;2022-08-02T10:46:22;65910.63;;;32.27;36.24
7832;BME280;3961;42.058;25.586;2022-08-02T10:54:24;65973.47;;;32.83;34.89
7832;BME280;3961;42.058;25.586;2022-08-02T10:56:52;66018.19;;;33.19;34.12
7832;BME280;3961;42.058;25.586;2022-08-02T10:59:32;66097.66;;;33.83;34.63
7832;BME280;3961;42.058;25.586;2022-08-02T11:02:01;66083.66;;;33.73;33.57
7832;BME280;3961;42.058;25.586;2022-08-02T11:09:37;66144.41;;;34.23;32.80
7832;BME280;3961;42.058;25.586;2022-08-02T11:12:07;66166.94;;;34.42;31.91
7832;BME280;3961;42.058;25.586;2022-08-02T11:14:35;66162.97;;;34.41;31.96
7832;BME280;3961;42.058;25.586;2022-08-02T11:17:05;66138.28;;;34.22;32.17
7832;BME280;3961;42.058;25.586;2022-08-02T11:19:31;66087.22;;;33.76;32.17
7832;BME280;3961;42.058;25.586;2022-08-02T11:22:14;66068.88;;;33.60;33.10
7832;BME280;3961;42.058;25.586;2022-08-02T11:24:42;66055.63;;;33.47;33.03
7832;BME280;3961;42.058;25.586;2022-08-02T11:27:16;65989.44;;;32.97;33.14
7832;BME280;3961;42.058;25.586;2022-08-02T11:29:43;65981.94;;;32.86;34.51
7832;BME280;3961;42.058;25.586;2022-08-02T11:32:19;65994.94;;;32.97;33.87
7832;BME280;3961;42.058;25.586;2022-08-02T11:34:47;66003.22;;;33.04;33.39
7832;BME280;3961;42.058;25.586;2022-08-02T11:37:35;66091.34;;;33.80;33.40
7832;BME280;3961;42.058;25.586;2022-08-02T11:40:02;66123.91;;;34.08;32.07
7832;BME280;3961;42.058;25.586;2022-08-02T11:42:36;66135.34;;;34.20;31.63
7832;BME280;3961;42.058;25.586;2022-08-02T11:45:07;66191.78;;;34.63;31.19
7832;BME280;3961;42.058;25.586;2022-08-02T11:47:47;66222.97;;;34.95;31.10
7832;BME280;3961;42.058;25.586;2022-08-02T11:50:13;66204.81;;;34.75;31.21
7832;BME280;3961;42.058;25.586;2022-08-02T11:52:39;66213.31;;;34.84;31.20
7832;BME280;3961;42.058;25.586;2022-08-02T11:55:06;66202.44;;;34.80;31.15
7832;BME280;3961;42.058;25.586;2022-08-02T11:57:33;66156.47;;;34.35;31.45
7832;BME280;3961;42.058;25.586;2022-08-02T11:59:59;66114.81;;;33.97;31.08
7832;BME280;3961;42.058;25.586;2022-08-02T12:02:29;66062.75;;;33.60;32.47
7832;BME280;3961;42.058;25.586;2022-08-02T12:05:04;66034.56;;;33.31;32.38
7832;BME280;3961;42.058;25.586;2022-08-02T12:07:36;66040.31;;;33.41;33.33
7832;BME280;3961;42.058;25.586;2022-08-02T12:10:08;66069.44;;;33.61;32.44
7832;BME280;3961;42.058;25.586;2022-08-02T12:12:47;66073.22;;;33.66;32.64
7832;BME280;3961;42.058;25.586;2022-08-02T12:15:13;66042.25;;;33.37;32.68
7832;BME280;3961;42.058;25.586;2022-08-02T12:17:39;66006.38;;;33.09;33.79
7832;BME280;3961;42.058;25.586;2022-08-02T12:20:34;65916.94;;;32.30;34.42
7832;BME280;3961;42.058;25.586;2022-08-02T12:23:04;65913.97;;;32.27;34.39
7832;BME280;3961;42.058;25.586;2022-08-02T12:25:29;65955.53;;;32.65;34.35
7832;BME280;3961;42.058;25.586;2022-08-02T12:28:16;65973.88;;;32.81;34.09
7832;BME280;3961;42.058;25.586;2022-08-02T12:30:57;65962.22;;;32.66;34.15
7832;BME280;3961;42.058;25.586;2022-08-02T12:33:24;65957.69;;;32.65;34.87
7832;BME280;3961;42.058;25.586;2022-08-02T12:35:50;65949.22;;;32.62;34.56
7832;BME280;3961;42.058;25.586;2022-08-02T12:38:16;65945.88;;;32.55;34.41
7832;BME280;3961;42.058;25.586;2022-08-02T12:40:42;65923.03;;;32.37;35.01
7832;BME280;3961;42.058;25.586;2022-08-02T12:43:16;65938.78;;;32.49;34.53
7832;BME280;3961;42.058;25.586;2022-08-02T12:48:13;65912.19;;;32.26;35.21
7832;BME280;3961;42.058;25.586;2022-08-02T12:50:38;65959.28;;;32.71;34.79
7832;BME280;3961;42.058;25.586;2022-08-02T12:55:29;65964.38;;;32.66;34.08
7832;BME280;3961;42.058;25.586;2022-08-02T12:57:58;65980.97;;;32.87;33.69
7832;BME280;3961;42.058;25.586;2022-08-02T13:02:55;66134.94;;;34.15;32.97
7832;BME280;3961;42.058;25.586;2022-08-02T13:05:21;66136.91;;;34.19;31.74
7832;BME280;3961;42.058;25.586;2022-08-02T13:07:47;66129.63;;;34.10;31.50
7832;BME280;3961;42.058;25.586;2022-08-02T13:10:13;66077.16;;;33.67;32.80
7832;BME280;3961;42.058;25.586;2022-08-02T13:12:38;66076.16;;;33.69;32.93
7832;BME280;3961;42.058;25.586;2022-08-02T13:15:06;66043.66;;;33.41;32.88
7832;BME280;3961;42.058;25.586;2022-08-02T13:17:32;65967.53;;;32.71;33.80
7832;BME280;3961;42.058;25.586;2022-08-02T13:19:57;65978.19;;;32.80;34.87
7832;BME280;3961;42.058;25.586;2022-08-02T13:22:23;65941.34;;;32.53;34.79
7832;BME280;3961;42.058;25.586;2022-08-02T13:24:49;65938.19;;;32.48;35.91
7832;BME280;3961;42.058;25.586;2022-08-02T13:27:16;65924.22;;;32.38;35.76
7832;BME280;3961;42.058;25.586;2022-08-02T13:29:42;65940.75;;;32.53;35.21
7832;BME280;3961;42.058;25.586;2022-08-02T13:32:08;65968.19;;;32.79;34.64
7832;BME280;3961;42.058;25.586;2022-08-02T13:34:34;65972.28;;;32.75;34.63
7832;BME280;3961;42.058;25.586;2022-08-02T13:37:00;66007.94;;;33.08;33.94
7832;BME280;3961;42.058;25.586;2022-08-02T13:39:26;66048.19;;;33.43;33.40
7832;BME280;3961;42.058;25.586;2022-08-02T13:41:52;66000.84;;;33.02;33.90
7832;BME280;3961;42.058;25.586;2022-08-02T13:44:18;66020.94;;;33.19;34.17
7832;BME280;3961;42.058;25.586;2022-08-02T13:46:44;66020.53;;;33.14;35.04
7832;BME280;3961;42.058;25.586;2022-08-02T13:49:09;65976.22;;;32.83;35.02
7832;BME280;3961;42.058;25.586;2022-08-02T13:51:35;65972.50;;;32.78;35.65
7832;BME280;3961;42.058;25.586;2022-08-02T13:54:01;65945.66;;;32.52;35.23
7832;BME280;3961;42.058;25.586;2022-08-02T13:56:26;65959.25;;;32.64;35.15
7832;BME280;3961;42.058;25.586;2022-08-02T13:58:52;65972.88;;;32.76;35.26
7832;BME280;3961;42.058;25.586;2022-08-02T14:01:17;65922.25;;;32.34;36.31
7832;BME280;3961;42.058;25.586;2022-08-02T14:03:43;65906.25;;;32.21;35.94